sensor_id;sensor_type;location;lat;lon;timestamp;P1;durP1;ratioP1;P2;durP2;ratioP2
19291;SDS011;9779;51.756;7.450;2023-02-15T00:01:10;6.87;;;6.30;;
19291;SDS011;9779;51.756;7.450;2023-02-15T00:03:37;6.17;;;5.67;;
19291;SDS011;9779;51.756;7.450;2023-02-15T00:06:03;6.97;;;6.33;;
19291;SDS011;9779;51.756;7.450;2023-02-15T00:08:28;13.40;;;7.30;;
19291;SDS011;9779;51.756;7.450;2023-02-15T00:11:03;8.17;;;7.53;;
19291;SDS011;9779;51.756;7.450;2023-02-15T00:13:30;7.33;;;6.67;;
19291;SDS011;9779;51.756;7.450;2023-02-15T00:16:03;9.60;;;6.40;;
19291;SDS011;9779;51.756;7.450;2023-02-15T00:18:33;7.67;;;7.07;;
19291;SDS011;9779;51.756;7.450;2023-02-15T00:21:02;10.17;;;7.77;;
19291;SDS011;9779;51.756;7.450;2023-02-15T00:23:29;9.23;;;6.97;;
19291;SDS011;9779;51.756;7.450;2023-02-15T00:26:04;7.40;;;6.70;;
19291;SDS011;9779;51.756;7.450;2023-02-15T00:28:36;8.07;;;7.27;;
19291;SDS011;9779;51.756;7.450;2023-02-15T00:31:06;8.10;;;7.40;;
19291;SDS011;9779;51.756;7.450;2023-02-15T00:33:34;7.93;;;7.23;;
19291;SDS011;9779;51.756;7.450;2023-02-15T00:36:00;7.20;;;6.60;;
19291;SDS011;9779;51.756;7.450;2023-02-15T00:38:27;10.47;;;7.77;;
19291;SDS011;9779;51.756;7.450;2023-02-15T00:40:54;15.23;;;7.10;;
19291;SDS011;9779;51.756;7.450;2023-02-15T00:43:20;8.40;;;7.70;;
19291;SDS011;9779;51.756;7.450;2023-02-15T00:45:46;9.77;;;7.57;;
19291;SDS011;9779;51.756;7.450;2023-02-15T00:48:12;9.47;;;8.53;;
19291;SDS011;9779;51.756;7.450;2023-02-15T00:50:38;8.73;;;7.83;;
19291;SDS011;9779;51.756;7.450;2023-02-15T00:53:03;9.00;;;8.17;;
19291;SDS011;9779;51.756;7.450;2023-02-15T00:55:29;8.60;;;7.77;;
19291;SDS011;9779;51.756;7.450;2023-02-15T00:57:54;10.70;;;8.30;;
19291;SDS011;9779;51.756;7.450;2023-02-15T01:00:20;12.83;;;8.17;;
19291;SDS011;9779;51.756;7.450;2023-02-15T01:02:46;14.77;;;9.63;;
19291;SDS011;9779;51.756;7.450;2023-02-15T01:05:11;10.73;;;9.47;;
19291;SDS011;9779;51.756;7.450;2023-02-15T01:07:37;11.37;;;9.13;;
19291;SDS011;9779;51.756;7.450;2023-02-15T01:10:04;9.20;;;7.77;;
19291;SDS011;9779;51.756;7.450;2023-02-15T01:12:31;8.93;;;8.13;;
19291;SDS011;9779;51.756;7.450;2023-02-15T01:14:57;12.30;;;8.80;;
19291;SDS011;9779;51.756;7.450;2023-02-15T01:17:22;11.80;;;8.43;;
19291;SDS011;9779;51.756;7.450;2023-02-15T01:19:48;9.43;;;8.53;;
19291;SDS011;9779;51.756;7.450;2023-02-15T01:22:13;9.83;;;8.93;;
19291;SDS011;9779;51.756;7.450;2023-02-15T01:24:39;9.93;;;8.53;;
19291;SDS011;9779;51.756;7.450;2023-02-15T01:27:05;9.73;;;8.57;;
19291;SDS011;9779;51.756;7.450;2023-02-15T01:29:30;11.67;;;7.23;;
19291;SDS011;9779;51.756;7.450;2023-02-15T01:31:56;8.50;;;7.60;;
19291;SDS011;9779;51.756;7.450;2023-02-15T01:34:21;7.40;;;6.80;;
19291;SDS011;9779;51.756;7.450;2023-02-15T01:36:47;10.03;;;7.30;;
19291;SDS011;9779;51.756;7.450;2023-02-15T01:39:13;8.73;;;7.87;;
19291;SDS011;9779;51.756;7.450;2023-02-15T01:41:39;7.83;;;7.23;;
19291;SDS011;9779;51.756;7.450;2023-02-15T01:47:09;8.03;;;7.07;;
19291;SDS011;9779;51.756;7.450;2023-02-15T01:49:37;6.90;;;6.30;;
19291;SDS011;9779;51.756;7.450;2023-02-15T01:52:06;10.90;;;8.00;;
19291;SDS011;9779;51.756;7.450;2023-02-15T01:54:34;10.30;;;7.73;;
19291;SDS011;9779;51.756;7.450;2023-02-15T01:57:04;7.40;;;6.83;;
19291;SDS011;9779;51.756;7.450;2023-02-15T01:59:32;8.77;;;7.03;;
19291;SDS011;9779;51.756;7.450;2023-02-15T02:02:01;8.20;;;7.33;;
19291;SDS011;9779;51.756;7.450;2023-02-15T02:04:31;7.40;;;6.70;;
19291;SDS011;9779;51.756;7.450;2023-02-15T02:07:08;7.53;;;6.93;;
19291;SDS011;9779;51.756;7.450;2023-02-15T02:09:37;9.17;;;8.03;;
19291;SDS011;9779;51.756;7.450;2023-02-15T02:12:03;13.97;;;9.37;;
19291;SDS011;9779;51.756;7.450;2023-02-15T02:14:29;8.60;;;7.53;;
19291;SDS011;9779;51.756;7.450;2023-02-15T02:19:45;8.87;;;7.27;;
19291;SDS011;9779;51.756;7.450;2023-02-15T02:25:17;13.90;;;7.97;;
19291;SDS011;9779;51.756;7.450;2023-02-15T02:34:29;9.67;;;7.53;;
19291;SDS011;9779;51.756;7.450;2023-02-15T02:37:17;10.40;;;7.37;;
19291;SDS011;9779;51.756;7.450;2023-02-15T02:42:42;8.40;;;7.57;;
19291;SDS011;9779;51.756;7.450;2023-02-15T02:47:56;7.97;;;7.27;;
19291;SDS011;9779;51.756;7.450;2023-02-15T02:50:27;7.23;;;6.63;;
19291;SDS011;9779;51.756;7.450;2023-02-15T02:52:54;7.50;;;6.90;;
19291;SDS011;9779;51.756;7.450;2023-02-15T03:00:27;7.13;;;6.43;;
19291;SDS011;9779;51.756;7.450;2023-02-15T03:02:59;7.37;;;6.67;;
19291;SDS011;9779;51.756;7.450;2023-02-15T03:05:34;7.20;;;6.57;;
19291;SDS011;9779;51.756;7.450;2023-02-15T03:08:04;8.30;;;7.50;;
19291;SDS011;9779;51.756;7.450;2023-02-15T03:10:35;7.27;;;6.63;;
19291;SDS011;9779;51.756;7.450;2023-02-15T03:13:01;7.53;;;6.83;;
19291;SDS011;9779;51.756;7.450;2023-02-15T03:15:31;8.13;;;7.37;;
19291;SDS011;9779;51.756;7.450;2023-02-15T03:18:20;7.13;;;6.63;;
19291;SDS011;9779;51.756;7.450;2023-02-15T03:20:50;7.87;;;7.27;;
19291;SDS011;9779;51.756;7.450;2023-02-15T03:23:17;7.53;;;6.93;;
19291;SDS011;9779;51.756;7.450;2023-02-15T03:26:00;7.93;;;7.23;;
19291;SDS011;9779;51.756;7.450;2023-02-15T03:29:01;9.17;;;7.07;;
19291;SDS011;9779;51.756;7.450;2023-02-15T03:31:21;8.10;;;6.80;;
19291;SDS011;9779;51.756;7.450;2023-02-15T03:33:53;9.37;;;7.00;;
19291;SDS011;9779;51.756;7.450;2023-02-15T03:36:29;9.50;;;6.87;;
19291;SDS011;9779;51.756;7.450;2023-02-15T03:41:37;7.60;;;6.77;;
19291;SDS011;9779;51.756;7.450;2023-02-15T03:44:15;6.80;;;6.20;;
19291;SDS011;9779;51.756;7.450;2023-02-15T03:46:52;7.73;;;6.53;;
19291;SDS011;9779;51.756;7.450;2023-02-15T03:49:39;7.20;;;6.60;;
19291;SDS011;9779;51.756;7.450;2023-02-15T03:52:10;7.03;;;6.53;;
19291;SDS011;9779;51.756;7.450;2023-02-15T03:54:39;7.87;;;7.17;;
19291;SDS011;9779;51.756;7.450;2023-02-15T03:57:30;10.20;;;7.63;;
19291;SDS011;9779;51.756;7.450;2023-02-15T04:00:16;9.43;;;7.77;;
19291;SDS011;9779;51.756;7.450;2023-02-15T04:05:37;8.27;;;7.57;;
19291;SDS011;9779;51.756;7.450;2023-02-15T04:08:04;8.13;;;7.40;;
19291;SDS011;9779;51.756;7.450;2023-02-15T04:10:30;8.37;;;7.57;;
19291;SDS011;9779;51.756;7.450;2023-02-15T04:13:14;7.80;;;7.10;;
19291;SDS011;9779;51.756;7.450;2023-02-15T04:15:39;7.60;;;6.97;;
19291;SDS011;9779;51.756;7.450;2023-02-15T04:18:24;7.43;;;6.83;;
19291;SDS011;9779;51.756;7.450;2023-02-15T04:21:08;9.03;;;6.77;;
19291;SDS011;9779;51.756;7.450;2023-02-15T04:23:52;6.97;;;6.20;;
19291;SDS011;9779;51.756;7.450;2023-02-15T04:26:36;7.30;;;6.60;;
19291;SDS011;9779;51.756;7.450;2023-02-15T04:29:02;6.77;;;6.17;;
19291;SDS011;9779;51.756;7.450;2023-02-15T04:31:27;7.97;;;7.27;;
19291;SDS011;9779;51.756;7.450;2023-02-15T04:33:53;7.90;;;7.20;;
19291;SDS011;9779;51.756;7.450;2023-02-15T04:36:18;7.53;;;6.93;;
19291;SDS011;9779;51.756;7.450;2023-02-15T04:38:44;8.27;;;7.43;;
19291;SDS011;9779;51.756;7.450;2023-02-15T04:41:10;8.37;;;6.30;;
19291;SDS011;9779;51.756;7.450;2023-02-15T04:43:38;10.77;;;7.77;;
19291;SDS011;9779;51.756;7.450;2023-02-15T04:46:05;7.10;;;6.50;;
19291;SDS011;9779;51.756;7.450;2023-02-15T04:48:30;7.23;;;6.63;;
19291;SDS011;9779;51.756;7.450;2023-02-15T04:50:56;9.50;;;6.73;;
19291;SDS011;9779;51.756;7.450;2023-02-15T04:53:21;7.57;;;6.97;;
19291;SDS011;9779;51.756;7.450;2023-02-15T04:55:47;9.97;;;6.57;;
19291;SDS011;9779;51.756;7.450;2023-02-15T04:58:13;8.67;;;7.60;;
19291;SDS011;9779;51.756;7.450;2023-02-15T05:00:38;7.47;;;6.60;;
19291;SDS011;9779;51.756;7.450;2023-02-15T05:03:04;7.30;;;6.73;;
19291;SDS011;9779;51.756;7.450;2023-02-15T05:05:29;8.33;;;7.63;;
19291;SDS011;9779;51.756;7.450;2023-02-15T05:07:55;8.17;;;7.23;;
19291;SDS011;9779;51.756;7.450;2023-02-15T05:10:21;9.63;;;7.30;;
19291;SDS011;9779;51.756;7.450;2023-02-15T05:12:48;8.63;;;7.93;;
19291;SDS011;9779;51.756;7.450;2023-02-15T05:15:13;8.33;;;7.53;;
19291;SDS011;9779;51.756;7.450;2023-02-15T05:17:39;8.40;;;7.57;;
19291;SDS011;9779;51.756;7.450;2023-02-15T05:20:05;11.80;;;7.53;;
19291;SDS011;9779;51.756;7.450;2023-02-15T05:22:31;12.90;;;8.27;;
19291;SDS011;9779;51.756;7.450;2023-02-15T05:24:56;9.73;;;8.30;;
19291;SDS011;9779;51.756;7.450;2023-02-15T05:27:40;8.63;;;7.80;;
19291;SDS011;9779;51.756;7.450;2023-02-15T05:30:25;9.47;;;7.97;;
19291;SDS011;9779;51.756;7.450;2023-02-15T05:32:50;11.03;;;8.57;;
19291;SDS011;9779;51.756;7.450;2023-02-15T05:35:16;8.97;;;8.13;;
19291;SDS011;9779;51.756;7.450;2023-02-15T05:37:42;11.37;;;7.20;;
19291;SDS011;9779;51.756;7.450;2023-02-15T05:40:07;8.70;;;7.87;;
19291;SDS011;9779;51.756;7.450;2023-02-15T05:42:33;9.17;;;7.77;;
19291;SDS011;9779;51.756;7.450;2023-02-15T05:44:59;8.83;;;8.10;;
19291;SDS011;9779;51.756;7.450;2023-02-15T05:47:25;14.63;;;7.90;;
19291;SDS011;9779;51.756;7.450;2023-02-15T05:49:50;10.67;;;7.70;;
19291;SDS011;9779;51.756;7.450;2023-02-15T05:52:16;8.73;;;7.77;;
19291;SDS011;9779;51.756;7.450;2023-02-15T05:54:41;8.80;;;8.00;;
19291;SDS011;9779;51.756;7.450;2023-02-15T05:57:07;8.87;;;8.07;;
19291;SDS011;9779;51.756;7.450;2023-02-15T05:59:32;9.37;;;8.27;;
19291;SDS011;9779;51.756;7.450;2023-02-15T06:01:58;12.57;;;8.20;;
19291;SDS011;9779;51.756;7.450;2023-02-15T06:04:24;8.27;;;7.07;;
19291;SDS011;9779;51.756;7.450;2023-02-15T06:06:49;9.70;;;7.93;;
19291;SDS011;9779;51.756;7.450;2023-02-15T06:09:15;11.27;;;8.10;;
19291;SDS011;9779;51.756;7.450;2023-02-15T06:11:43;8.50;;;7.80;;
19291;SDS011;9779;51.756;7.450;2023-02-15T06:14:09;8.40;;;7.57;;
19291;SDS011;9779;51.756;7.450;2023-02-15T06:16:35;9.40;;;8.00;;
19291;SDS011;9779;51.756;7.450;2023-02-15T06:19:01;9.70;;;7.73;;
19291;SDS011;9779;51.756;7.450;2023-02-15T06:21:27;8.70;;;7.90;;
19291;SDS011;9779;51.756;7.450;2023-02-15T06:23:53;8.50;;;7.80;;
19291;SDS011;9779;51.756;7.450;2023-02-15T06:26:18;8.37;;;7.63;;
19291;SDS011;9779;51.756;7.450;2023-02-15T06:28:44;12.63;;;8.20;;
19291;SDS011;9779;51.756;7.450;2023-02-15T06:31:10;9.17;;;8.17;;
19291;SDS011;9779;51.756;7.450;2023-02-15T06:33:35;9.00;;;8.10;;
19291;SDS011;9779;51.756;7.450;2023-02-15T06:36:01;9.73;;;7.47;;
19291;SDS011;9779;51.756;7.450;2023-02-15T06:38:28;8.70;;;7.23;;
19291;SDS011;9779;51.756;7.450;2023-02-15T06:40:54;9.93;;;8.27;;
19291;SDS011;9779;51.756;7.450;2023-02-15T06:43:19;12.30;;;7.90;;
19291;SDS011;9779;51.756;7.450;2023-02-15T06:45:45;9.60;;;8.47;;
19291;SDS011;9779;51.756;7.450;2023-02-15T06:48:10;12.37;;;8.83;;
19291;SDS011;9779;51.756;7.450;2023-02-15T06:50:37;8.77;;;7.63;;
19291;SDS011;9779;51.756;7.450;2023-02-15T06:53:03;10.43;;;7.67;;
19291;SDS011;9779;51.756;7.450;2023-02-15T06:55:28;8.20;;;7.37;;
19291;SDS011;9779;51.756;7.450;2023-02-15T06:57:54;10.03;;;8.20;;
19291;SDS011;9779;51.756;7.450;2023-02-15T07:00:20;9.87;;;8.30;;
19291;SDS011;9779;51.756;7.450;2023-02-15T07:02:47;10.33;;;9.00;;
19291;SDS011;9779;51.756;7.450;2023-02-15T07:05:12;11.80;;;8.03;;
19291;SDS011;9779;51.756;7.450;2023-02-15T07:07:38;10.40;;;8.43;;
19291;SDS011;9779;51.756;7.450;2023-02-15T07:10:04;10.90;;;8.43;;
19291;SDS011;9779;51.756;7.450;2023-02-15T07:12:30;8.80;;;7.83;;
19291;SDS011;9779;51.756;7.450;2023-02-15T07:15:08;9.13;;;8.33;;
19291;SDS011;9779;51.756;7.450;2023-02-15T07:17:34;9.60;;;8.70;;
19291;SDS011;9779;51.756;7.450;2023-02-15T07:20:00;15.90;;;8.37;;
19291;SDS011;9779;51.756;7.450;2023-02-15T07:22:28;9.37;;;7.97;;
19291;SDS011;9779;51.756;7.450;2023-02-15T07:24:53;10.73;;;8.67;;
19291;SDS011;9779;51.756;7.450;2023-02-15T07:27:19;13.13;;;10.63;;
19291;SDS011;9779;51.756;7.450;2023-02-15T07:29:46;9.67;;;8.57;;
19291;SDS011;9779;51.756;7.450;2023-02-15T07:32:11;14.70;;;9.70;;
19291;SDS011;9779;51.756;7.450;2023-02-15T07:34:37;9.47;;;8.53;;
19291;SDS011;9779;51.756;7.450;2023-02-15T07:37:02;14.80;;;8.17;;
19291;SDS011;9779;51.756;7.450;2023-02-15T07:39:29;13.40;;;8.60;;
19291;SDS011;9779;51.756;7.450;2023-02-15T07:41:54;9.17;;;8.27;;
19291;SDS011;9779;51.756;7.450;2023-02-15T07:44:20;9.40;;;8.50;;
19291;SDS011;9779;51.756;7.450;2023-02-15T07:46:45;16.47;;;8.43;;
19291;SDS011;9779;51.756;7.450;2023-02-15T07:49:11;9.53;;;8.33;;
19291;SDS011;9779;51.756;7.450;2023-02-15T07:51:37;9.47;;;8.47;;
19291;SDS011;9779;51.756;7.450;2023-02-15T07:54:02;9.37;;;8.47;;
19291;SDS011;9779;51.756;7.450;2023-02-15T07:56:28;10.87;;;7.87;;
19291;SDS011;9779;51.756;7.450;2023-02-15T07:58:53;9.50;;;8.60;;
19291;SDS011;9779;51.756;7.450;2023-02-15T08:01:31;17.13;;;9.30;;
19291;SDS011;9779;51.756;7.450;2023-02-15T08:04:01;12.67;;;10.47;;
19291;SDS011;9779;51.756;7.450;2023-02-15T08:06:29;10.13;;;9.13;;
19291;SDS011;9779;51.756;7.450;2023-02-15T08:08:56;12.53;;;9.67;;
19291;SDS011;9779;51.756;7.450;2023-02-15T08:11:23;11.73;;;9.83;;
19291;SDS011;9779;51.756;7.450;2023-02-15T08:13:51;17.43;;;9.50;;
19291;SDS011;9779;51.756;7.450;2023-02-15T08:18:56;17.33;;;11.60;;
19291;SDS011;9779;51.756;7.450;2023-02-15T08:21:22;18.40;;;10.73;;
19291;SDS011;9779;51.756;7.450;2023-02-15T08:23:50;13.10;;;9.77;;
19291;SDS011;9779;51.756;7.450;2023-02-15T08:26:16;12.10;;;10.83;;
19291;SDS011;9779;51.756;7.450;2023-02-15T08:28:42;15.13;;;10.20;;
19291;SDS011;9779;51.756;7.450;2023-02-15T08:31:09;12.20;;;11.00;;
19291;SDS011;9779;51.756;7.450;2023-02-15T08:33:37;12.07;;;10.80;;
19291;SDS011;9779;51.756;7.450;2023-02-15T08:36:08;14.17;;;10.70;;
19291;SDS011;9779;51.756;7.450;2023-02-15T08:38:38;15.57;;;11.37;;
19291;SDS011;9779;51.756;7.450;2023-02-15T08:43:49;14.77;;;11.90;;
19291;SDS011;9779;51.756;7.450;2023-02-15T08:46:16;15.27;;;11.80;;
19291;SDS011;9779;51.756;7.450;2023-02-15T08:48:43;15.37;;;12.10;;
19291;SDS011;9779;51.756;7.450;2023-02-15T08:51:10;18.60;;;12.23;;
19291;SDS011;9779;51.756;7.450;2023-02-15T08:53:39;21.07;;;13.10;;
19291;SDS011;9779;51.756;7.450;2023-02-15T08:56:07;21.13;;;13.20;;
19291;SDS011;9779;51.756;7.450;2023-02-15T08:58:33;16.90;;;13.27;;
19291;SDS011;9779;51.756;7.450;2023-02-15T09:00:59;20.10;;;15.13;;
19291;SDS011;9779;51.756;7.450;2023-02-15T09:03:27;25.13;;;13.70;;
19291;SDS011;9779;51.756;7.450;2023-02-15T09:05:56;19.47;;;13.97;;
19291;SDS011;9779;51.756;7.450;2023-02-15T09:08:25;18.53;;;14.13;;
19291;SDS011;9779;51.756;7.450;2023-02-15T09:10:51;27.23;;;16.67;;
19291;SDS011;9779;51.756;7.450;2023-02-15T09:13:17;25.73;;;15.47;;
19291;SDS011;9779;51.756;7.450;2023-02-15T09:15:42;26.87;;;16.50;;
19291;SDS011;9779;51.756;7.450;2023-02-15T09:18:08;23.53;;;15.23;;
19291;SDS011;9779;51.756;7.450;2023-02-15T09:20:36;20.90;;;14.37;;
19291;SDS011;9779;51.756;7.450;2023-02-15T09:23:02;22.63;;;15.90;;
19291;SDS011;9779;51.756;7.450;2023-02-15T09:25:28;22.53;;;15.63;;
19291;SDS011;9779;51.756;7.450;2023-02-15T09:27:54;29.83;;;18.00;;
19291;SDS011;9779;51.756;7.450;2023-02-15T09:30:19;31.80;;;17.23;;
19291;SDS011;9779;51.756;7.450;2023-02-15T09:32:45;24.30;;;17.07;;
19291;SDS011;9779;51.756;7.450;2023-02-15T09:35:12;29.23;;;17.63;;
19291;SDS011;9779;51.756;7.450;2023-02-15T09:37:37;29.80;;;18.47;;
19291;SDS011;9779;51.756;7.450;2023-02-15T09:40:03;30.13;;;18.07;;
19291;SDS011;9779;51.756;7.450;2023-02-15T09:48:22;32.13;;;18.90;;
19291;SDS011;9779;51.756;7.450;2023-02-15T09:51:09;25.57;;;18.03;;
19291;SDS011;9779;51.756;7.450;2023-02-15T09:53:50;30.17;;;19.43;;
19291;SDS011;9779;51.756;7.450;2023-02-15T09:56:48;29.30;;;18.70;;
19291;SDS011;9779;51.756;7.450;2023-02-15T10:02:10;34.10;;;19.50;;
19291;SDS011;9779;51.756;7.450;2023-02-15T10:10:24;31.90;;;17.60;;
19291;SDS011;9779;51.756;7.450;2023-02-15T10:21:23;34.23;;;19.97;;
19291;SDS011;9779;51.756;7.450;2023-02-15T10:27:04;31.57;;;19.63;;
19291;SDS011;9779;51.756;7.450;2023-02-15T10:29:37;37.60;;;20.43;;
19291;SDS011;9779;51.756;7.450;2023-02-15T10:34:39;35.37;;;20.47;;
19291;SDS011;9779;51.756;7.450;2023-02-15T10:37:31;32.37;;;19.13;;
19291;SDS011;9779;51.756;7.450;2023-02-15T10:43:14;29.47;;;19.17;;
19291;SDS011;9779;51.756;7.450;2023-02-15T10:48:34;35.73;;;19.73;;
19291;SDS011;9779;51.756;7.450;2023-02-15T10:51:14;36.60;;;19.13;;
19291;SDS011;9779;51.756;7.450;2023-02-15T10:53:57;35.83;;;20.07;;
19291;SDS011;9779;51.756;7.450;2023-02-15T10:56:45;30.70;;;19.73;;
19291;SDS011;9779;51.756;7.450;2023-02-15T11:01:52;42.70;;;20.00;;
19291;SDS011;9779;51.756;7.450;2023-02-15T11:04:39;35.73;;;19.93;;
19291;SDS011;9779;51.756;7.450;2023-02-15T11:07:17;30.33;;;19.00;;
19291;SDS011;9779;51.756;7.450;2023-02-15T11:09:56;29.97;;;20.13;;
19291;SDS011;9779;51.756;7.450;2023-02-15T11:12:28;30.60;;;18.57;;
19291;SDS011;9779;51.756;7.450;2023-02-15T11:15:16;32.97;;;19.70;;
19291;SDS011;9779;51.756;7.450;2023-02-15T11:18:02;34.00;;;18.77;;
19291;SDS011;9779;51.756;7.450;2023-02-15T11:20:32;32.33;;;18.73;;
19291;SDS011;9779;51.756;7.450;2023-02-15T11:23:06;31.53;;;18.53;;
19291;SDS011;9779;51.756;7.450;2023-02-15T11:25:40;29.47;;;18.53;;
19291;SDS011;9779;51.756;7.450;2023-02-15T11:28:10;32.67;;;19.57;;
19291;SDS011;9779;51.756;7.450;2023-02-15T11:30:45;31.73;;;18.53;;
19291;SDS011;9779;51.756;7.450;2023-02-15T11:33:21;31.03;;;18.90;;
19291;SDS011;9779;51.756;7.450;2023-02-15T11:35:57;31.53;;;19.27;;
19291;SDS011;9779;51.756;7.450;2023-02-15T11:38:33;26.53;;;18.37;;
19291;SDS011;9779;51.756;7.450;2023-02-15T11:41:02;34.67;;;19.23;;
19291;SDS011;9779;51.756;7.450;2023-02-15T11:43:37;31.20;;;17.77;;
19291;SDS011;9779;51.756;7.450;2023-02-15T11:46:13;33.47;;;18.07;;
19291;SDS011;9779;51.756;7.450;2023-02-15T11:48:40;31.60;;;19.73;;
19291;SDS011;9779;51.756;7.450;2023-02-15T11:51:25;24.43;;;15.57;;
19291;SDS011;9779;51.756;7.450;2023-02-15T11:53:52;16.40;;;12.23;;
19291;SDS011;9779;51.756;7.450;2023-02-15T11:56:20;24.07;;;16.53;;
19291;SDS011;9779;51.756;7.450;2023-02-15T12:01:59;33.20;;;18.17;;
19291;SDS011;9779;51.756;7.450;2023-02-15T12:04:28;32.10;;;18.40;;
19291;SDS011;9779;51.756;7.450;2023-02-15T12:07:45;34.73;;;17.80;;
19291;SDS011;9779;51.756;7.450;2023-02-15T12:12:32;43.27;;;17.93;;
19291;SDS011;9779;51.756;7.450;2023-02-15T12:15:00;32.50;;;19.10;;
19291;SDS011;9779;51.756;7.450;2023-02-15T12:17:33;37.60;;;17.70;;
19291;SDS011;9779;51.756;7.450;2023-02-15T12:22:50;36.10;;;18.77;;
19291;SDS011;9779;51.756;7.450;2023-02-15T12:31:01;26.37;;;15.73;;
19291;SDS011;9779;51.756;7.450;2023-02-15T12:33:35;27.80;;;16.60;;
19291;SDS011;9779;51.756;7.450;2023-02-15T12:36:11;24.87;;;16.37;;
19291;SDS011;9779;51.756;7.450;2023-02-15T12:38:42;37.10;;;17.40;;
19291;SDS011;9779;51.756;7.450;2023-02-15T12:41:24;28.50;;;18.00;;
19291;SDS011;9779;51.756;7.450;2023-02-15T12:46:31;35.13;;;16.83;;
19291;SDS011;9779;51.756;7.450;2023-02-15T12:49:17;28.37;;;16.73;;
19291;SDS011;9779;51.756;7.450;2023-02-15T12:51:54;26.57;;;17.33;;
19291;SDS011;9779;51.756;7.450;2023-02-15T12:54:27;24.10;;;16.97;;
19291;SDS011;9779;51.756;7.450;2023-02-15T12:56:56;28.63;;;16.93;;
19291;SDS011;9779;51.756;7.450;2023-02-15T12:59:23;26.80;;;16.60;;
19291;SDS011;9779;51.756;7.450;2023-02-15T13:01:49;38.37;;;17.07;;
19291;SDS011;9779;51.756;7.450;2023-02-15T13:06:49;36.30;;;17.50;;
19291;SDS011;9779;51.756;7.450;2023-02-15T13:09:19;36.27;;;16.53;;
19291;SDS011;9779;51.756;7.450;2023-02-15T13:11:48;22.53;;;16.13;;
19291;SDS011;9779;51.756;7.450;2023-02-15T13:14:18;32.27;;;16.63;;
19291;SDS011;9779;51.756;7.450;2023-02-15T13:16:47;23.70;;;16.00;;
19291;SDS011;9779;51.756;7.450;2023-02-15T13:19:35;26.37;;;16.17;;
19291;SDS011;9779;51.756;7.450;2023-02-15T13:22:14;23.93;;;16.47;;
19291;SDS011;9779;51.756;7.450;2023-02-15T13:27:13;27.00;;;15.13;;
19291;SDS011;9779;51.756;7.450;2023-02-15T13:29:45;23.77;;;14.87;;
19291;SDS011;9779;51.756;7.450;2023-02-15T13:34:51;27.37;;;14.83;;
19291;SDS011;9779;51.756;7.450;2023-02-15T13:37:33;26.17;;;14.37;;
19291;SDS011;9779;51.756;7.450;2023-02-15T13:40:22;21.27;;;14.10;;
19291;SDS011;9779;51.756;7.450;2023-02-15T13:43:20;25.63;;;15.33;;
19291;SDS011;9779;51.756;7.450;2023-02-15T13:48:46;21.40;;;12.33;;
19291;SDS011;9779;51.756;7.450;2023-02-15T13:51:21;19.03;;;13.40;;
19291;SDS011;9779;51.756;7.450;2023-02-15T13:59:13;20.03;;;12.07;;
19291;SDS011;9779;51.756;7.450;2023-02-15T14:13:18;17.60;;;11.73;;
19291;SDS011;9779;51.756;7.450;2023-02-15T14:15:56;27.93;;;12.40;;
19291;SDS011;9779;51.756;7.450;2023-02-15T14:18:48;23.93;;;11.60;;
19291;SDS011;9779;51.756;7.450;2023-02-15T14:31:58;16.17;;;10.50;;
19291;SDS011;9779;51.756;7.450;2023-02-15T14:34:45;23.00;;;11.77;;
19291;SDS011;9779;51.756;7.450;2023-02-15T14:40:43;16.83;;;11.60;;
19291;SDS011;9779;51.756;7.450;2023-02-15T14:46:07;15.20;;;10.97;;
19291;SDS011;9779;51.756;7.450;2023-02-15T14:48:54;16.43;;;11.53;;
19291;SDS011;9779;51.756;7.450;2023-02-15T14:54:11;16.63;;;10.17;;
19291;SDS011;9779;51.756;7.450;2023-02-15T14:59:27;14.03;;;9.83;;
19291;SDS011;9779;51.756;7.450;2023-02-15T15:07:50;13.10;;;10.23;;
19291;SDS011;9779;51.756;7.450;2023-02-15T15:12:47;19.10;;;10.67;;
19291;SDS011;9779;51.756;7.450;2023-02-15T15:18:05;20.87;;;10.77;;
19291;SDS011;9779;51.756;7.450;2023-02-15T15:20:44;18.53;;;9.90;;
19291;SDS011;9779;51.756;7.450;2023-02-15T15:25:42;15.87;;;10.23;;
19291;SDS011;9779;51.756;7.450;2023-02-15T15:33:57;15.90;;;10.47;;
19291;SDS011;9779;51.756;7.450;2023-02-15T15:39:30;14.83;;;9.57;;
19291;SDS011;9779;51.756;7.450;2023-02-15T15:50:57;15.83;;;9.77;;
19291;SDS011;9779;51.756;7.450;2023-02-15T15:53:26;11.57;;;10.03;;
19291;SDS011;9779;51.756;7.450;2023-02-15T15:55:58;17.00;;;11.10;;
19291;SDS011;9779;51.756;7.450;2023-02-15T15:58:31;15.00;;;10.03;;
19291;SDS011;9779;51.756;7.450;2023-02-15T16:00:59;19.90;;;10.97;;
19291;SDS011;9779;51.756;7.450;2023-02-15T16:03:34;15.87;;;10.40;;
19291;SDS011;9779;51.756;7.450;2023-02-15T16:06:00;13.63;;;10.40;;
19291;SDS011;9779;51.756;7.450;2023-02-15T16:08:30;13.30;;;9.60;;
19291;SDS011;9779;51.756;7.450;2023-02-15T16:11:02;11.20;;;9.43;;
19291;SDS011;9779;51.756;7.450;2023-02-15T16:13:42;17.43;;;10.87;;
19291;SDS011;9779;51.756;7.450;2023-02-15T16:16:08;23.77;;;10.60;;
19291;SDS011;9779;51.756;7.450;2023-02-15T16:18:34;17.33;;;10.33;;
19291;SDS011;9779;51.756;7.450;2023-02-15T16:21:03;20.80;;;11.13;;
19291;SDS011;9779;51.756;7.450;2023-02-15T16:28:58;18.37;;;11.53;;
19291;SDS011;9779;51.756;7.450;2023-02-15T16:31:24;20.70;;;11.33;;
19291;SDS011;9779;51.756;7.450;2023-02-15T16:33:52;25.80;;;11.73;;
19291;SDS011;9779;51.756;7.450;2023-02-15T16:36:26;28.97;;;11.30;;
19291;SDS011;9779;51.756;7.450;2023-02-15T16:41:22;21.23;;;11.07;;
19291;SDS011;9779;51.756;7.450;2023-02-15T16:43:49;19.47;;;12.23;;
19291;SDS011;9779;51.756;7.450;2023-02-15T16:46:23;21.07;;;12.77;;
19291;SDS011;9779;51.756;7.450;2023-02-15T16:48:49;22.27;;;11.40;;
19291;SDS011;9779;51.756;7.450;2023-02-15T16:51:21;16.83;;;10.70;;
19291;SDS011;9779;51.756;7.450;2023-02-15T16:53:52;16.67;;;11.00;;
19291;SDS011;9779;51.756;7.450;2023-02-15T16:56:26;15.03;;;10.73;;
19291;SDS011;9779;51.756;7.450;2023-02-15T16:58:55;21.23;;;10.87;;
19291;SDS011;9779;51.756;7.450;2023-02-15T17:01:23;14.93;;;10.60;;
19291;SDS011;9779;51.756;7.450;2023-02-15T17:03:52;19.80;;;10.43;;
19291;SDS011;9779;51.756;7.450;2023-02-15T17:06:37;21.00;;;12.73;;
19291;SDS011;9779;51.756;7.450;2023-02-15T17:09:11;22.10;;;11.97;;
19291;SDS011;9779;51.756;7.450;2023-02-15T17:11:43;19.90;;;12.63;;
19291;SDS011;9779;51.756;7.450;2023-02-15T17:16:40;18.43;;;11.80;;
19291;SDS011;9779;51.756;7.450;2023-02-15T17:19:08;18.50;;;12.47;;
19291;SDS011;9779;51.756;7.450;2023-02-15T17:21:50;17.57;;;11.37;;
19291;SDS011;9779;51.756;7.450;2023-02-15T17:26:56;15.57;;;10.53;;
19291;SDS011;9779;51.756;7.450;2023-02-15T17:29:31;15.03;;;10.10;;
19291;SDS011;9779;51.756;7.450;2023-02-15T17:32:02;68.07;;;33.27;;
19291;SDS011;9779;51.756;7.450;2023-02-15T17:37:47;46.57;;;23.37;;
19291;SDS011;9779;51.756;7.450;2023-02-15T17:43:09;31.77;;;18.30;;
19291;SDS011;9779;51.756;7.450;2023-02-15T17:45:42;34.63;;;16.63;;
19291;SDS011;9779;51.756;7.450;2023-02-15T17:48:17;28.60;;;15.47;;
19291;SDS011;9779;51.756;7.450;2023-02-15T17:50:46;28.20;;;16.20;;
19291;SDS011;9779;51.756;7.450;2023-02-15T17:53:12;25.03;;;14.57;;
19291;SDS011;9779;51.756;7.450;2023-02-15T17:55:40;18.87;;;12.90;;
19291;SDS011;9779;51.756;7.450;2023-02-15T17:58:08;25.80;;;12.27;;
19291;SDS011;9779;51.756;7.450;2023-02-15T18:00:39;29.63;;;13.97;;
19291;SDS011;9779;51.756;7.450;2023-02-15T18:03:29;24.97;;;15.07;;
19291;SDS011;9779;51.756;7.450;2023-02-15T18:06:21;19.03;;;11.67;;
19291;SDS011;9779;51.756;7.450;2023-02-15T18:09:05;24.33;;;11.30;;
19291;SDS011;9779;51.756;7.450;2023-02-15T18:11:52;22.00;;;10.53;;
19291;SDS011;9779;51.756;7.450;2023-02-15T18:14:18;19.93;;;11.50;;
19291;SDS011;9779;51.756;7.450;2023-02-15T18:16:43;27.57;;;12.47;;